sensor_id;sensor_type;location;lat;lon;timestamp;P1;durP1;ratioP1;P2;durP2;ratioP2
14030;SDS011;7090;49.436;8.490;2023-04-21T00:02:01;6.53;;;6.33;;
14030;SDS011;7090;49.436;8.490;2023-04-21T00:04:27;7.80;;;7.50;;
14030;SDS011;7090;49.436;8.490;2023-04-21T00:06:53;6.63;;;6.43;;
14030;SDS011;7090;49.436;8.490;2023-04-21T00:09:19;7.33;;;6.83;;
14030;SDS011;7090;49.436;8.490;2023-04-21T00:11:45;5.40;;;5.20;;
14030;SDS011;7090;49.436;8.490;2023-04-21T00:14:11;5.70;;;5.50;;
14030;SDS011;7090;49.436;8.490;2023-04-21T00:16:36;5.90;;;5.70;;
14030;SDS011;7090;49.436;8.490;2023-04-21T00:19:02;7.50;;;7.20;;
14030;SDS011;7090;49.436;8.490;2023-04-21T00:21:31;7.83;;;7.50;;
14030;SDS011;7090;49.436;8.490;2023-04-21T00:23:57;8.07;;;7.50;;
14030;SDS011;7090;49.436;8.490;2023-04-21T00:26:23;6.50;;;5.93;;
14030;SDS011;7090;49.436;8.490;2023-04-21T00:28:48;6.37;;;6.07;;
14030;SDS011;7090;49.436;8.490;2023-04-21T00:31:14;5.60;;;5.40;;
14030;SDS011;7090;49.436;8.490;2023-04-21T00:33:40;5.53;;;5.33;;
14030;SDS011;7090;49.436;8.490;2023-04-21T00:36:05;5.73;;;5.53;;
14030;SDS011;7090;49.436;8.490;2023-04-21T00:38:31;7.40;;;7.10;;
14030;SDS011;7090;49.436;8.490;2023-04-21T00:40:57;5.87;;;5.63;;
14030;SDS011;7090;49.436;8.490;2023-04-21T00:43:22;5.60;;;5.40;;
14030;SDS011;7090;49.436;8.490;2023-04-21T00:45:49;5.53;;;5.33;;
14030;SDS011;7090;49.436;8.490;2023-04-21T00:48:15;5.80;;;5.60;;
14030;SDS011;7090;49.436;8.490;2023-04-21T00:50:42;7.47;;;7.17;;
14030;SDS011;7090;49.436;8.490;2023-04-21T00:53:08;7.10;;;6.77;;
14030;SDS011;7090;49.436;8.490;2023-04-21T00:55:35;13.73;;;6.77;;
14030;SDS011;7090;49.436;8.490;2023-04-21T00:58:01;5.67;;;5.47;;
14030;SDS011;7090;49.436;8.490;2023-04-21T01:00:27;5.60;;;5.40;;
14030;SDS011;7090;49.436;8.490;2023-04-21T01:02:53;5.53;;;5.33;;
14030;SDS011;7090;49.436;8.490;2023-04-21T01:05:20;6.23;;;6.03;;
14030;SDS011;7090;49.436;8.490;2023-04-21T01:07:45;5.80;;;5.60;;
14030;SDS011;7090;49.436;8.490;2023-04-21T01:10:11;6.30;;;6.10;;
14030;SDS011;7090;49.436;8.490;2023-04-21T01:12:43;5.63;;;5.43;;
14030;SDS011;7090;49.436;8.490;2023-04-21T01:15:12;5.80;;;5.60;;
14030;SDS011;7090;49.436;8.490;2023-04-21T01:17:39;5.20;;;5.00;;
14030;SDS011;7090;49.436;8.490;2023-04-21T01:20:06;5.47;;;5.27;;
14030;SDS011;7090;49.436;8.490;2023-04-21T01:22:38;8.27;;;7.67;;
14030;SDS011;7090;49.436;8.490;2023-04-21T01:25:05;6.23;;;5.93;;
14030;SDS011;7090;49.436;8.490;2023-04-21T01:27:32;5.20;;;5.00;;
14030;SDS011;7090;49.436;8.490;2023-04-21T01:29:58;5.17;;;4.97;;
14030;SDS011;7090;49.436;8.490;2023-04-21T01:32:25;6.07;;;5.77;;
14030;SDS011;7090;49.436;8.490;2023-04-21T01:34:53;5.57;;;5.37;;
14030;SDS011;7090;49.436;8.490;2023-04-21T01:37:20;4.80;;;4.70;;
14030;SDS011;7090;49.436;8.490;2023-04-21T01:39:50;5.33;;;5.13;;
14030;SDS011;7090;49.436;8.490;2023-04-21T01:42:18;5.10;;;4.90;;
14030;SDS011;7090;49.436;8.490;2023-04-21T01:44:46;8.07;;;7.40;;
14030;SDS011;7090;49.436;8.490;2023-04-21T01:47:13;5.80;;;5.60;;
14030;SDS011;7090;49.436;8.490;2023-04-21T01:49:39;5.60;;;5.40;;
14030;SDS011;7090;49.436;8.490;2023-04-21T01:52:05;5.27;;;5.07;;
14030;SDS011;7090;49.436;8.490;2023-04-21T01:54:30;5.30;;;5.10;;
14030;SDS011;7090;49.436;8.490;2023-04-21T01:56:56;5.30;;;5.10;;
14030;SDS011;7090;49.436;8.490;2023-04-21T01:59:22;5.40;;;5.20;;
14030;SDS011;7090;49.436;8.490;2023-04-21T02:01:47;7.00;;;6.70;;
14030;SDS011;7090;49.436;8.490;2023-04-21T02:04:13;5.70;;;5.50;;
14030;SDS011;7090;49.436;8.490;2023-04-21T02:06:39;5.60;;;5.40;;
14030;SDS011;7090;49.436;8.490;2023-04-21T02:09:05;5.70;;;5.50;;
14030;SDS011;7090;49.436;8.490;2023-04-21T02:11:31;5.90;;;5.70;;
14030;SDS011;7090;49.436;8.490;2023-04-21T02:13:56;5.80;;;5.60;;
14030;SDS011;7090;49.436;8.490;2023-04-21T02:16:22;5.70;;;5.50;;
14030;SDS011;7090;49.436;8.490;2023-04-21T02:18:51;5.70;;;5.50;;
14030;SDS011;7090;49.436;8.490;2023-04-21T02:21:21;5.50;;;5.30;;
14030;SDS011;7090;49.436;8.490;2023-04-21T02:23:47;7.80;;;7.40;;
14030;SDS011;7090;49.436;8.490;2023-04-21T02:26:12;6.97;;;6.47;;
14030;SDS011;7090;49.436;8.490;2023-04-21T02:28:38;6.00;;;5.80;;
14030;SDS011;7090;49.436;8.490;2023-04-21T02:31:04;6.20;;;6.00;;
14030;SDS011;7090;49.436;8.490;2023-04-21T02:33:29;5.23;;;5.03;;
14030;SDS011;7090;49.436;8.490;2023-04-21T02:35:55;5.30;;;5.10;;
14030;SDS011;7090;49.436;8.490;2023-04-21T02:38:21;5.30;;;5.10;;
14030;SDS011;7090;49.436;8.490;2023-04-21T02:40:46;5.67;;;5.47;;
14030;SDS011;7090;49.436;8.490;2023-04-21T02:43:12;5.37;;;5.17;;
14030;SDS011;7090;49.436;8.490;2023-04-21T02:45:38;4.83;;;4.73;;
14030;SDS011;7090;49.436;8.490;2023-04-21T02:48:04;5.83;;;5.57;;
14030;SDS011;7090;49.436;8.490;2023-04-21T02:50:30;6.07;;;5.87;;
14030;SDS011;7090;49.436;8.490;2023-04-21T02:52:56;5.03;;;4.83;;
14030;SDS011;7090;49.436;8.490;2023-04-21T02:55:21;4.60;;;4.50;;
14030;SDS011;7090;49.436;8.490;2023-04-21T02:57:47;7.67;;;7.13;;
14030;SDS011;7090;49.436;8.490;2023-04-21T03:00:13;4.90;;;4.80;;
14030;SDS011;7090;49.436;8.490;2023-04-21T03:02:39;6.23;;;6.03;;
14030;SDS011;7090;49.436;8.490;2023-04-21T03:05:05;8.30;;;7.60;;
14030;SDS011;7090;49.436;8.490;2023-04-21T03:07:31;3.17;;;3.07;;
14030;SDS011;7090;49.436;8.490;2023-04-21T03:09:56;4.70;;;4.50;;
14030;SDS011;7090;49.436;8.490;2023-04-21T03:12:22;5.83;;;5.50;;
14030;SDS011;7090;49.436;8.490;2023-04-21T03:14:48;5.17;;;4.87;;
14030;SDS011;7090;49.436;8.490;2023-04-21T03:17:13;4.63;;;4.37;;
14030;SDS011;7090;49.436;8.490;2023-04-21T03:19:39;5.93;;;5.63;;
14030;SDS011;7090;49.436;8.490;2023-04-21T03:22:04;5.27;;;4.97;;
14030;SDS011;7090;49.436;8.490;2023-04-21T03:24:30;1.80;;;1.80;;
14030;SDS011;7090;49.436;8.490;2023-04-21T03:26:56;3.37;;;3.13;;
14030;SDS011;7090;49.436;8.490;2023-04-21T03:29:22;6.17;;;5.60;;
14030;SDS011;7090;49.436;8.490;2023-04-21T03:31:47;2.00;;;2.00;;
14030;SDS011;7090;49.436;8.490;2023-04-21T03:34:13;2.90;;;2.80;;
14030;SDS011;7090;49.436;8.490;2023-04-21T03:36:39;4.57;;;4.23;;
14030;SDS011;7090;49.436;8.490;2023-04-21T03:39:04;2.00;;;2.00;;
14030;SDS011;7090;49.436;8.490;2023-04-21T03:41:34;3.60;;;3.40;;
14030;SDS011;7090;49.436;8.490;2023-04-21T03:43:59;6.27;;;5.67;;
14030;SDS011;7090;49.436;8.490;2023-04-21T03:46:25;1.77;;;1.77;;
14030;SDS011;7090;49.436;8.490;2023-04-21T03:48:50;1.70;;;1.70;;
14030;SDS011;7090;49.436;8.490;2023-04-21T03:51:16;8.33;;;5.30;;
14030;SDS011;7090;49.436;8.490;2023-04-21T03:53:42;1.53;;;1.53;;
14030;SDS011;7090;49.436;8.490;2023-04-21T03:56:07;1.73;;;1.73;;
14030;SDS011;7090;49.436;8.490;2023-04-21T03:58:33;1.60;;;1.60;;
14030;SDS011;7090;49.436;8.490;2023-04-21T04:01:00;1.53;;;1.53;;
14030;SDS011;7090;49.436;8.490;2023-04-21T04:03:25;1.60;;;1.60;;
14030;SDS011;7090;49.436;8.490;2023-04-21T04:05:51;1.80;;;1.80;;
14030;SDS011;7090;49.436;8.490;2023-04-21T04:08:16;1.90;;;1.90;;
14030;SDS011;7090;49.436;8.490;2023-04-21T04:10:42;1.90;;;1.90;;
14030;SDS011;7090;49.436;8.490;2023-04-21T04:13:08;2.00;;;2.00;;
14030;SDS011;7090;49.436;8.490;2023-04-21T04:15:33;2.27;;;2.27;;
14030;SDS011;7090;49.436;8.490;2023-04-21T04:17:59;2.77;;;2.67;;
14030;SDS011;7090;49.436;8.490;2023-04-21T04:20:25;4.73;;;4.40;;
14030;SDS011;7090;49.436;8.490;2023-04-21T04:22:51;1.80;;;1.80;;
14030;SDS011;7090;49.436;8.490;2023-04-21T04:25:17;3.57;;;3.37;;
14030;SDS011;7090;49.436;8.490;2023-04-21T04:27:42;2.80;;;2.60;;
14030;SDS011;7090;49.436;8.490;2023-04-21T04:30:09;2.15;;;2.13;;
14030;SDS011;7090;49.436;8.490;2023-04-21T04:32:35;1.90;;;1.90;;
14030;SDS011;7090;49.436;8.490;2023-04-21T04:35:03;4.50;;;4.20;;
14030;SDS011;7090;49.436;8.490;2023-04-21T04:37:29;2.03;;;2.03;;
14030;SDS011;7090;49.436;8.490;2023-04-21T04:39:55;2.13;;;2.13;;
14030;SDS011;7090;49.436;8.490;2023-04-21T04:42:21;2.33;;;2.30;;
14030;SDS011;7090;49.436;8.490;2023-04-21T04:44:51;1.93;;;1.93;;
14030;SDS011;7090;49.436;8.490;2023-04-21T04:47:17;3.33;;;3.17;;
14030;SDS011;7090;49.436;8.490;2023-04-21T04:49:43;2.00;;;2.00;;
14030;SDS011;7090;49.436;8.490;2023-04-21T04:52:08;3.43;;;3.23;;
14030;SDS011;7090;49.436;8.490;2023-04-21T04:54:34;1.67;;;1.67;;
14030;SDS011;7090;49.436;8.490;2023-04-21T04:57:00;1.80;;;1.80;;
14030;SDS011;7090;49.436;8.490;2023-04-21T04:59:26;1.27;;;1.27;;
14030;SDS011;7090;49.436;8.490;2023-04-21T05:01:52;1.40;;;1.40;;
14030;SDS011;7090;49.436;8.490;2023-04-21T05:04:17;2.00;;;2.00;;
14030;SDS011;7090;49.436;8.490;2023-04-21T05:06:43;1.60;;;1.60;;
14030;SDS011;7090;49.436;8.490;2023-04-21T05:09:09;1.60;;;1.60;;
14030;SDS011;7090;49.436;8.490;2023-04-21T05:11:36;1.80;;;1.80;;
14030;SDS011;7090;49.436;8.490;2023-04-21T05:14:01;2.10;;;2.10;;
14030;SDS011;7090;49.436;8.490;2023-04-21T05:16:27;2.00;;;2.00;;
14030;SDS011;7090;49.436;8.490;2023-04-21T05:18:53;2.37;;;2.27;;
14030;SDS011;7090;49.436;8.490;2023-04-21T05:21:22;2.10;;;2.10;;
14030;SDS011;7090;49.436;8.490;2023-04-21T05:23:49;2.07;;;2.07;;
14030;SDS011;7090;49.436;8.490;2023-04-21T05:26:14;1.93;;;1.93;;
14030;SDS011;7090;49.436;8.490;2023-04-21T05:28:40;2.10;;;2.10;;
14030;SDS011;7090;49.436;8.490;2023-04-21T05:31:05;5.17;;;3.53;;
14030;SDS011;7090;49.436;8.490;2023-04-21T05:33:31;2.40;;;2.30;;
14030;SDS011;7090;49.436;8.490;2023-04-21T05:35:57;2.30;;;2.30;;
14030;SDS011;7090;49.436;8.490;2023-04-21T05:38:22;4.77;;;4.57;;
14030;SDS011;7090;49.436;8.490;2023-04-21T05:40:54;4.17;;;3.87;;
14030;SDS011;7090;49.436;8.490;2023-04-21T05:43:20;2.87;;;2.77;;
14030;SDS011;7090;49.436;8.490;2023-04-21T05:45:46;4.87;;;4.63;;
14030;SDS011;7090;49.436;8.490;2023-04-21T05:48:12;3.00;;;2.90;;
14030;SDS011;7090;49.436;8.490;2023-04-21T05:50:37;5.13;;;4.83;;
14030;SDS011;7090;49.436;8.490;2023-04-21T05:53:03;4.67;;;4.37;;
14030;SDS011;7090;49.436;8.490;2023-04-21T05:55:28;4.27;;;3.87;;
14030;SDS011;7090;49.436;8.490;2023-04-21T05:57:54;4.13;;;3.97;;
14030;SDS011;7090;49.436;8.490;2023-04-21T06:00:20;7.70;;;6.97;;
14030;SDS011;7090;49.436;8.490;2023-04-21T06:02:45;7.50;;;6.90;;
14030;SDS011;7090;49.436;8.490;2023-04-21T06:05:11;3.10;;;3.00;;
14030;SDS011;7090;49.436;8.490;2023-04-21T06:07:36;6.07;;;5.67;;
14030;SDS011;7090;49.436;8.490;2023-04-21T06:10:02;4.10;;;4.00;;
14030;SDS011;7090;49.436;8.490;2023-04-21T06:12:28;3.10;;;3.00;;
14030;SDS011;7090;49.436;8.490;2023-04-21T06:14:53;7.07;;;6.67;;
14030;SDS011;7090;49.436;8.490;2023-04-21T06:17:23;3.83;;;3.73;;
14030;SDS011;7090;49.436;8.490;2023-04-21T06:19:49;6.57;;;6.20;;
14030;SDS011;7090;49.436;8.490;2023-04-21T06:22:23;5.80;;;5.50;;
14030;SDS011;7090;49.436;8.490;2023-04-21T06:24:49;6.40;;;6.00;;
14030;SDS011;7090;49.436;8.490;2023-04-21T06:27:15;5.80;;;5.45;;
14030;SDS011;7090;49.436;8.490;2023-04-21T06:29:41;5.90;;;5.30;;
14030;SDS011;7090;49.436;8.490;2023-04-21T06:32:08;3.83;;;3.73;;
14030;SDS011;7090;49.436;8.490;2023-04-21T06:34:34;4.03;;;3.93;;
14030;SDS011;7090;49.436;8.490;2023-04-21T06:36:59;5.07;;;4.77;;
14030;SDS011;7090;49.436;8.490;2023-04-21T06:39:25;3.43;;;3.33;;
14030;SDS011;7090;49.436;8.490;2023-04-21T06:41:51;3.50;;;3.30;;
14030;SDS011;7090;49.436;8.490;2023-04-21T06:44:17;3.93;;;3.73;;
14030;SDS011;7090;49.436;8.490;2023-04-21T06:46:42;2.43;;;2.33;;
14030;SDS011;7090;49.436;8.490;2023-04-21T06:49:08;3.10;;;3.00;;
14030;SDS011;7090;49.436;8.490;2023-04-21T06:51:34;3.00;;;2.90;;
14030;SDS011;7090;49.436;8.490;2023-04-21T06:54:00;7.05;;;6.50;;
14030;SDS011;7090;49.436;8.490;2023-04-21T06:56:26;3.10;;;3.00;;
14030;SDS011;7090;49.436;8.490;2023-04-21T06:58:53;5.33;;;5.03;;
14030;SDS011;7090;49.436;8.490;2023-04-21T07:01:18;3.57;;;3.47;;
14030;SDS011;7090;49.436;8.490;2023-04-21T07:03:44;4.60;;;4.30;;
14030;SDS011;7090;49.436;8.490;2023-04-21T07:06:10;6.83;;;4.90;;
14030;SDS011;7090;49.436;8.490;2023-04-21T07:08:36;10.23;;;9.20;;
14030;SDS011;7090;49.436;8.490;2023-04-21T07:11:02;3.90;;;3.80;;
14030;SDS011;7090;49.436;8.490;2023-04-21T07:13:27;7.93;;;7.23;;
14030;SDS011;7090;49.436;8.490;2023-04-21T07:15:53;5.80;;;5.60;;
14030;SDS011;7090;49.436;8.490;2023-04-21T07:18:19;15.47;;;12.80;;
14030;SDS011;7090;49.436;8.490;2023-04-21T07:20:44;4.37;;;4.27;;
14030;SDS011;7090;49.436;8.490;2023-04-21T07:23:10;6.57;;;6.23;;
14030;SDS011;7090;49.436;8.490;2023-04-21T07:25:36;5.43;;;5.20;;
14030;SDS011;7090;49.436;8.490;2023-04-21T07:28:01;18.47;;;13.90;;
14030;SDS011;7090;49.436;8.490;2023-04-21T07:30:28;5.97;;;5.77;;
14030;SDS011;7090;49.436;8.490;2023-04-21T07:32:54;5.47;;;5.05;;
14030;SDS011;7090;49.436;8.490;2023-04-21T07:35:20;20.87;;;8.90;;
14030;SDS011;7090;49.436;8.490;2023-04-21T07:37:45;4.70;;;4.47;;
14030;SDS011;7090;49.436;8.490;2023-04-21T07:40:11;6.83;;;6.23;;
14030;SDS011;7090;49.436;8.490;2023-04-21T07:42:37;8.20;;;7.53;;
14030;SDS011;7090;49.436;8.490;2023-04-21T07:45:03;5.03;;;4.72;;
14030;SDS011;7090;49.436;8.490;2023-04-21T07:47:29;5.43;;;5.13;;
14030;SDS011;7090;49.436;8.490;2023-04-21T07:49:55;4.33;;;4.23;;
14030;SDS011;7090;49.436;8.490;2023-04-21T07:52:21;7.73;;;7.13;;
14030;SDS011;7090;49.436;8.490;2023-04-21T07:54:47;6.57;;;6.07;;
14030;SDS011;7090;49.436;8.490;2023-04-21T07:57:12;12.53;;;11.27;;
14030;SDS011;7090;49.436;8.490;2023-04-21T07:59:38;8.60;;;8.20;;
14030;SDS011;7090;49.436;8.490;2023-04-21T08:02:04;15.90;;;14.10;;
14030;SDS011;7090;49.436;8.490;2023-04-21T08:04:30;13.70;;;12.47;;
14030;SDS011;7090;49.436;8.490;2023-04-21T08:06:56;13.07;;;12.13;;
14030;SDS011;7090;49.436;8.490;2023-04-21T08:09:22;10.03;;;9.63;;
14030;SDS011;7090;49.436;8.490;2023-04-21T08:11:47;13.73;;;12.70;;
14030;SDS011;7090;49.436;8.490;2023-04-21T08:14:13;13.13;;;12.03;;
14030;SDS011;7090;49.436;8.490;2023-04-21T08:19:57;13.93;;;12.57;;
14030;SDS011;7090;49.436;8.490;2023-04-21T08:22:23;11.70;;;10.83;;
14030;SDS011;7090;49.436;8.490;2023-04-21T08:24:49;10.70;;;10.00;;
14030;SDS011;7090;49.436;8.490;2023-04-21T08:27:14;12.87;;;11.50;;
14030;SDS011;7090;49.436;8.490;2023-04-21T08:29:40;10.20;;;9.43;;
14030;SDS011;7090;49.436;8.490;2023-04-21T08:32:05;10.30;;;9.70;;
14030;SDS011;7090;49.436;8.490;2023-04-21T08:34:31;12.13;;;11.30;;
14030;SDS011;7090;49.436;8.490;2023-04-21T08:36:57;10.90;;;9.83;;
14030;SDS011;7090;49.436;8.490;2023-04-21T08:39:22;8.03;;;7.67;;
14030;SDS011;7090;49.436;8.490;2023-04-21T08:41:48;9.80;;;9.20;;
14030;SDS011;7090;49.436;8.490;2023-04-21T08:44:14;9.60;;;8.97;;
14030;SDS011;7090;49.436;8.490;2023-04-21T08:46:41;10.80;;;9.93;;
14030;SDS011;7090;49.436;8.490;2023-04-21T08:49:08;28.80;;;12.37;;
14030;SDS011;7090;49.436;8.490;2023-04-21T08:51:34;9.17;;;8.60;;
14030;SDS011;7090;49.436;8.490;2023-04-21T08:54:00;10.13;;;9.20;;
14030;SDS011;7090;49.436;8.490;2023-04-21T08:56:25;14.77;;;10.45;;
14030;SDS011;7090;49.436;8.490;2023-04-21T10:44:53;7.20;;;6.90;;
14030;SDS011;7090;49.436;8.490;2023-04-21T10:50:22;8.02;;;7.63;;
14030;SDS011;7090;49.436;8.490;2023-04-21T10:55:18;7.50;;;7.15;;
14030;SDS011;7090;49.436;8.490;2023-04-21T10:57:45;7.88;;;7.53;;
14030;SDS011;7090;49.436;8.490;2023-04-21T11:00:16;7.93;;;7.53;;
14030;SDS011;7090;49.436;8.490;2023-04-21T11:03:19;7.95;;;7.43;;
14030;SDS011;7090;49.436;8.490;2023-04-21T11:05:39;11.45;;;10.52;;
14030;SDS011;7090;49.436;8.490;2023-04-21T11:08:06;7.20;;;6.90;;
14030;SDS011;7090;49.436;8.490;2023-04-21T11:11:06;9.50;;;8.88;;
14030;SDS011;7090;49.436;8.490;2023-04-21T11:13:26;13.93;;;9.77;;
14030;SDS011;7090;49.436;8.490;2023-04-21T11:16:04;9.68;;;8.88;;
14030;SDS011;7090;49.436;8.490;2023-04-21T11:18:40;12.93;;;11.82;;
14030;SDS011;7090;49.436;8.490;2023-04-21T11:21:08;11.00;;;9.82;;
14030;SDS011;7090;49.436;8.490;2023-04-21T11:23:39;10.07;;;9.38;;
14030;SDS011;7090;49.436;8.490;2023-04-21T11:26:06;8.30;;;7.60;;
14030;SDS011;7090;49.436;8.490;2023-04-21T11:28:32;6.00;;;5.80;;
14030;SDS011;7090;49.436;8.490;2023-04-21T11:30:57;8.93;;;8.32;;
14030;SDS011;7090;49.436;8.490;2023-04-21T11:33:23;10.60;;;9.80;;
14030;SDS011;7090;49.436;8.490;2023-04-21T11:35:52;13.70;;;12.32;;
14030;SDS011;7090;49.436;8.490;2023-04-21T11:38:23;9.63;;;8.90;;
14030;SDS011;7090;49.436;8.490;2023-04-21T11:40:49;8.25;;;7.75;;
14030;SDS011;7090;49.436;8.490;2023-04-21T11:43:15;11.07;;;10.25;;
14030;SDS011;7090;49.436;8.490;2023-04-21T11:45:41;11.65;;;10.60;;
14030;SDS011;7090;49.436;8.490;2023-04-21T11:48:16;7.70;;;7.35;;
14030;SDS011;7090;49.436;8.490;2023-04-21T11:50:47;6.80;;;6.50;;
14030;SDS011;7090;49.436;8.490;2023-04-21T11:53:14;7.30;;;7.00;;
14030;SDS011;7090;49.436;8.490;2023-04-21T11:55:44;9.38;;;8.77;;
14030;SDS011;7090;49.436;8.490;2023-04-21T11:58:10;7.50;;;7.20;;
14030;SDS011;7090;49.436;8.490;2023-04-21T12:00:40;8.45;;;7.95;;
14030;SDS011;7090;49.436;8.490;2023-04-21T12:03:08;9.77;;;9.13;;
14030;SDS011;7090;49.436;8.490;2023-04-21T12:05:35;8.90;;;8.40;;
14030;SDS011;7090;49.436;8.490;2023-04-21T12:08:01;9.65;;;8.90;;
14030;SDS011;7090;49.436;8.490;2023-04-21T12:10:29;10.20;;;9.30;;
14030;SDS011;7090;49.436;8.490;2023-04-21T12:12:55;7.45;;;7.15;;
14030;SDS011;7090;49.436;8.490;2023-04-21T12:15:21;8.20;;;7.80;;
14030;SDS011;7090;49.436;8.490;2023-04-21T12:17:51;11.52;;;10.52;;
14030;SDS011;7090;49.436;8.490;2023-04-21T12:20:18;7.43;;;7.13;;
14030;SDS011;7090;49.436;8.490;2023-04-21T12:22:45;8.80;;;8.15;;
14030;SDS011;7090;49.436;8.490;2023-04-21T12:25:11;13.88;;;12.68;;
14030;SDS011;7090;49.436;8.490;2023-04-21T12:27:46;9.95;;;9.25;;
14030;SDS011;7090;49.436;8.490;2023-04-21T12:30:16;8.30;;;7.90;;
14030;SDS011;7090;49.436;8.490;2023-04-21T12:32:42;10.27;;;9.48;;
14030;SDS011;7090;49.436;8.490;2023-04-21T12:35:08;8.88;;;8.30;;
14030;SDS011;7090;49.436;8.490;2023-04-21T12:37:34;6.93;;;6.63;;
14030;SDS011;7090;49.436;8.490;2023-04-21T12:40:00;9.38;;;8.70;;
14030;SDS011;7090;49.436;8.490;2023-04-21T12:42:26;8.90;;;8.40;;
14030;SDS011;7090;49.436;8.490;2023-04-21T12:44:51;6.88;;;6.57;;
14030;SDS011;7090;49.436;8.490;2023-04-21T12:47:17;9.25;;;8.65;;
14030;SDS011;7090;49.436;8.490;2023-04-21T12:49:43;9.27;;;8.68;;
14030;SDS011;7090;49.436;8.490;2023-04-21T12:52:08;7.60;;;7.30;;
14030;SDS011;7090;49.436;8.490;2023-04-21T12:54:34;10.40;;;9.50;;
14030;SDS011;7090;49.436;8.490;2023-04-21T12:56:59;10.32;;;9.52;;
14030;SDS011;7090;49.436;8.490;2023-04-21T12:59:25;9.00;;;8.50;;
14030;SDS011;7090;49.436;8.490;2023-04-21T13:01:51;12.85;;;11.73;;
14030;SDS011;7090;49.436;8.490;2023-04-21T13:04:16;11.82;;;10.85;;
14030;SDS011;7090;49.436;8.490;2023-04-21T13:06:42;7.30;;;7.00;;
14030;SDS011;7090;49.436;8.490;2023-04-21T13:09:08;7.40;;;7.10;;
14030;SDS011;7090;49.436;8.490;2023-04-21T13:11:33;10.73;;;9.93;;
14030;SDS011;7090;49.436;8.490;2023-04-21T13:13:59;12.77;;;11.70;;
14030;SDS011;7090;49.436;8.490;2023-04-21T13:16:25;9.15;;;8.65;;
14030;SDS011;7090;49.436;8.490;2023-04-21T13:18:50;12.52;;;11.27;;
14030;SDS011;7090;49.436;8.490;2023-04-21T13:21:16;9.45;;;8.75;;
14030;SDS011;7090;49.436;8.490;2023-04-21T13:23:42;12.52;;;11.48;;
14030;SDS011;7090;49.436;8.490;2023-04-21T13:26:07;11.40;;;10.43;;
14030;SDS011;7090;49.436;8.490;2023-04-21T13:28:33;10.90;;;10.02;;
14030;SDS011;7090;49.436;8.490;2023-04-21T13:30:59;11.80;;;10.75;;
14030;SDS011;7090;49.436;8.490;2023-04-21T13:33:25;12.30;;;11.25;;
14030;SDS011;7090;49.436;8.490;2023-04-21T13:35:51;11.95;;;10.95;;
14030;SDS011;7090;49.436;8.490;2023-04-21T13:38:16;12.00;;;11.00;;
14030;SDS011;7090;49.436;8.490;2023-04-21T13:40:42;9.90;;;9.13;;
14030;SDS011;7090;49.436;8.490;2023-04-21T13:43:09;9.40;;;8.75;;
14030;SDS011;7090;49.436;8.490;2023-04-21T13:45:35;12.50;;;11.40;;
14030;SDS011;7090;49.436;8.490;2023-04-21T13:48:01;8.88;;;8.38;;
14030;SDS011;7090;49.436;8.490;2023-04-21T13:50:26;10.88;;;9.98;;
14030;SDS011;7090;49.436;8.490;2023-04-21T13:52:52;10.40;;;9.70;;
14030;SDS011;7090;49.436;8.490;2023-04-21T13:55:17;13.52;;;12.15;;
14030;SDS011;7090;49.436;8.490;2023-04-21T13:57:43;10.30;;;9.50;;
14030;SDS011;7090;49.436;8.490;2023-04-21T14:00:09;11.67;;;10.67;;
14030;SDS011;7090;49.436;8.490;2023-04-21T14:02:35;12.13;;;11.02;;
14030;SDS011;7090;49.436;8.490;2023-04-21T14:05:01;11.38;;;10.50;;
14030;SDS011;7090;49.436;8.490;2023-04-21T14:07:27;11.73;;;10.88;;
14030;SDS011;7090;49.436;8.490;2023-04-21T14:09:53;12.15;;;11.07;;
14030;SDS011;7090;49.436;8.490;2023-04-21T14:12:18;9.93;;;9.23;;
14030;SDS011;7090;49.436;8.490;2023-04-21T14:14:44;8.38;;;8.00;;
14030;SDS011;7090;49.436;8.490;2023-04-21T14:17:10;8.45;;;8.05;;
14030;SDS011;7090;49.436;8.490;2023-04-21T14:19:35;12.52;;;11.45;;
14030;SDS011;7090;49.436;8.490;2023-04-21T14:22:01;12.15;;;11.25;;
14030;SDS011;7090;49.436;8.490;2023-04-21T14:24:27;11.45;;;10.45;;
14030;SDS011;7090;49.436;8.490;2023-04-21T14:26:54;11.50;;;10.30;;
14030;SDS011;7090;49.436;8.490;2023-04-21T14:29:23;11.82;;;10.82;;
14030;SDS011;7090;49.436;8.490;2023-04-21T14:31:49;12.15;;;11.25;;
14030;SDS011;7090;49.436;8.490;2023-04-21T14:34:15;8.48;;;8.07;;
14030;SDS011;7090;49.436;8.490;2023-04-21T14:36:40;11.10;;;10.25;;
14030;SDS011;7090;49.436;8.490;2023-04-21T14:39:07;11.25;;;10.43;;
14030;SDS011;7090;49.436;8.490;2023-04-21T14:41:33;12.65;;;11.65;;
14030;SDS011;7090;49.436;8.490;2023-04-21T14:43:58;12.05;;;11.00;;
14030;SDS011;7090;49.436;8.490;2023-04-21T14:46:24;10.75;;;9.98;;
14030;SDS011;7090;49.436;8.490;2023-04-21T14:48:50;11.63;;;10.70;;
14030;SDS011;7090;49.436;8.490;2023-04-21T14:51:17;11.18;;;10.10;;
14030;SDS011;7090;49.436;8.490;2023-04-21T14:53:44;13.60;;;12.32;;
14030;SDS011;7090;49.436;8.490;2023-04-21T14:56:11;11.07;;;10.38;;
14030;SDS011;7090;49.436;8.490;2023-04-21T14:58:36;9.35;;;8.75;;
14030;SDS011;7090;49.436;8.490;2023-04-21T15:01:02;13.02;;;11.00;;
14030;SDS011;7090;49.436;8.490;2023-04-21T15:03:28;12.77;;;11.55;;
14030;SDS011;7090;49.436;8.490;2023-04-21T15:05:53;13.63;;;11.55;;
14030;SDS011;7090;49.436;8.490;2023-04-21T15:08:19;11.27;;;10.43;;
14030;SDS011;7090;49.436;8.490;2023-04-21T15:10:45;10.85;;;10.15;;
14030;SDS011;7090;49.436;8.490;2023-04-21T15:13:11;11.43;;;10.52;;
14030;SDS011;7090;49.436;8.490;2023-04-21T15:15:37;12.68;;;11.70;;
14030;SDS011;7090;49.436;8.490;2023-04-21T15:18:04;11.57;;;10.70;;
14030;SDS011;7090;49.436;8.490;2023-04-21T15:20:30;12.07;;;11.07;;
14030;SDS011;7090;49.436;8.490;2023-04-21T15:22:55;10.88;;;10.10;;
14030;SDS011;7090;49.436;8.490;2023-04-21T15:25:21;12.88;;;11.90;;
14030;SDS011;7090;49.436;8.490;2023-04-21T15:27:46;12.50;;;11.60;;
14030;SDS011;7090;49.436;8.490;2023-04-21T15:30:12;12.55;;;11.65;;
14030;SDS011;7090;49.436;8.490;2023-04-21T15:32:38;11.30;;;10.48;;
14030;SDS011;7090;49.436;8.490;2023-04-21T15:35:04;12.13;;;11.23;;
14030;SDS011;7090;49.436;8.490;2023-04-21T15:37:30;12.98;;;12.07;;
14030;SDS011;7090;49.436;8.490;2023-04-21T15:39:55;10.90;;;10.15;;
14030;SDS011;7090;49.436;8.490;2023-04-21T15:42:21;10.15;;;9.55;;
14030;SDS011;7090;49.436;8.490;2023-04-21T15:44:47;11.70;;;10.73;;
14030;SDS011;7090;49.436;8.490;2023-04-21T15:47:13;11.32;;;10.30;;
14030;SDS011;7090;49.436;8.490;2023-04-21T15:49:40;12.77;;;11.45;;
14030;SDS011;7090;49.436;8.490;2023-04-21T15:52:06;10.13;;;9.52;;
14030;SDS011;7090;49.436;8.490;2023-04-21T15:54:32;13.27;;;12.07;;
14030;SDS011;7090;49.436;8.490;2023-04-21T15:56:59;11.50;;;10.65;;
14030;SDS011;7090;49.436;8.490;2023-04-21T15:59:26;11.23;;;10.35;;
14030;SDS011;7090;49.436;8.490;2023-04-21T16:01:52;10.65;;;9.95;;
14030;SDS011;7090;49.436;8.490;2023-04-21T16:04:18;10.23;;;9.52;;
14030;SDS011;7090;49.436;8.490;2023-04-21T16:06:43;10.07;;;9.35;;
14030;SDS011;7090;49.436;8.490;2023-04-21T16:09:09;13.57;;;12.38;;
14030;SDS011;7090;49.436;8.490;2023-04-21T16:11:35;9.95;;;9.43;;
14030;SDS011;7090;49.436;8.490;2023-04-21T16:14:01;8.98;;;8.27;;
14030;SDS011;7090;49.436;8.490;2023-04-21T16:16:27;11.13;;;10.15;;
14030;SDS011;7090;49.436;8.490;2023-04-21T16:18:52;11.05;;;10.15;;
14030;SDS011;7090;49.436;8.490;2023-04-21T16:21:18;10.18;;;9.35;;
14030;SDS011;7090;49.436;8.490;2023-04-21T16:23:44;12.35;;;11.43;;
14030;SDS011;7090;49.436;8.490;2023-04-21T16:26:11;9.40;;;8.80;;
14030;SDS011;7090;49.436;8.490;2023-04-21T16:28:36;11.02;;;10.18;;
14030;SDS011;7090;49.436;8.490;2023-04-21T16:31:02;8.93;;;8.32;;
14030;SDS011;7090;49.436;8.490;2023-04-21T16:33:28;8.30;;;7.90;;
14030;SDS011;7090;49.436;8.490;2023-04-21T16:35:54;8.43;;;7.97;;
14030;SDS011;7090;49.436;8.490;2023-04-21T16:38:19;8.35;;;7.95;;
14030;SDS011;7090;49.436;8.490;2023-04-21T16:40:45;7.20;;;6.90;;
14030;SDS011;7090;49.436;8.490;2023-04-21T16:43:10;7.30;;;7.00;;
14030;SDS011;7090;49.436;8.490;2023-04-21T16:45:36;7.38;;;7.07;;